Terminal Aerodrome Forecast
Issued by NWS

Home | Current Version | Previous Version | Text Only | Print | Product List | Glossary On
Versions: 1 2 3 4 5 6 7 8 9 10 11 12 13 14 15 16 17 18 19 20 21 22 23 24 25 26 27 28 29 30
000
FTAK31 PANC 260715 AAA
TAFAVD
TAF AMD
PAVD 260715Z 2607/2706 VRB03KT P6SM -SHRA FEW008 BKN035
      TEMPO 2607/2610 5SM -SHRA BKN005 OVC025
     FM261000 VRB03KT 5SM -SHRA BR FEW005 BKN025
     FM261400 VRB03KT 3SM -SHRASN BR SCT005 BKN015
     FM262000 25005KT 5SM -SHRA BR FEW005 BKN025
     FM270400 27004KT P6SM -SHRA BKN035
      AMD LTD TO CLD VIS AND WIND=

USA.gov is the U.S. government's official web portal to all federal, state and local government web resources and services.